createdAt,value
2023-02-04T00:00:15.399Z,4.10
2023-02-04T00:02:42.385Z,5.43
2023-02-04T00:05:10.399Z,3.40
2023-02-04T00:07:37.235Z,4.30
2023-02-04T00:10:06.699Z,4.07
2023-02-04T00:12:34.610Z,3.72
2023-02-04T00:15:01.956Z,3.55
2023-02-04T00:17:28.856Z,3.72
2023-02-04T00:19:55.738Z,3.85
2023-02-04T00:22:22.681Z,5.07
2023-02-04T00:24:50.716Z,4.65
2023-02-04T00:27:17.934Z,5.03
2023-02-04T00:29:44.845Z,5.07
2023-02-04T00:32:13.005Z,4.43
2023-02-04T00:34:39.983Z,3.58
2023-02-04T00:37:07.343Z,5.68
2023-02-04T00:39:34.175Z,7.47
2023-02-04T00:42:01.058Z,5.15
2023-02-04T00:44:27.947Z,5.80
2023-02-04T00:46:55.782Z,4.70
2023-02-04T00:49:22.617Z,6.50
2023-02-04T00:51:51.449Z,5.97
2023-02-04T00:54:18.374Z,6.10
2023-02-04T00:56:46.472Z,6.20
2023-02-04T00:59:13.336Z,6.47
2023-02-04T01:01:41.243Z,6.90
2023-02-04T01:04:08.197Z,5.38
2023-02-04T01:06:35.359Z,5.90
2023-02-04T01:09:02.796Z,5.50
2023-02-04T01:11:30.879Z,6.55
2023-02-04T01:13:58.092Z,5.38
2023-02-04T01:16:25.046Z,5.65
2023-02-04T01:18:51.993Z,7.22
2023-02-04T01:21:18.913Z,6.38
2023-02-04T01:23:45.735Z,5.40
2023-02-04T01:26:12.540Z,5.75
2023-02-04T01:28:39.415Z,4.80
2023-02-04T01:31:06.415Z,5.93
2023-02-04T01:33:33.246Z,5.28
2023-02-04T01:36:00.159Z,6.28
2023-02-04T01:38:27.188Z,6.32
2023-02-04T01:40:54.148Z,5.70
2023-02-04T01:43:23.318Z,5.72
2023-02-04T01:45:50.895Z,6.50
2023-02-04T01:48:20.712Z,6.93
2023-02-04T01:50:52.816Z,6.40
2023-02-04T01:53:24.080Z,6.20
2023-02-04T01:55:51.537Z,7.63
2023-02-04T01:58:19.202Z,6.65
2023-02-04T02:00:47.236Z,6.70
2023-02-04T02:03:14.144Z,7.30
2023-02-04T02:05:53.953Z,6.00
2023-02-04T02:08:21.154Z,7.10
2023-02-04T02:10:49.468Z,6.93
2023-02-04T02:13:19.378Z,5.30
2023-02-04T02:15:47.607Z,6.38
2023-02-04T02:18:15.921Z,6.47
2023-02-04T02:20:44.870Z,6.38
2023-02-04T02:23:11.725Z,6.82
2023-02-04T02:25:38.926Z,5.85
2023-02-04T02:28:11.414Z,6.07
2023-02-04T02:30:40.599Z,6.90
2023-02-04T02:33:08.336Z,8.95
2023-02-04T02:35:35.362Z,5.60
2023-02-04T02:38:02.335Z,6.10
2023-02-04T02:40:29.643Z,6.20
2023-02-04T02:42:56.701Z,7.03
2023-02-04T02:45:26.373Z,7.18
2023-02-04T02:47:54.226Z,6.45
2023-02-04T02:50:24.963Z,5.75
2023-02-04T02:52:53.382Z,6.30
2023-02-04T02:55:24.121Z,6.95
2023-02-04T02:57:53.012Z,6.60
2023-02-04T03:00:28.681Z,6.50
2023-02-04T03:03:11.470Z,7.07
2023-02-04T03:05:44.823Z,6.80
2023-02-04T03:08:14.471Z,7.43
2023-02-04T03:10:42.546Z,6.47
2023-02-04T03:27:41.668Z,5.93
2023-02-04T03:30:09.396Z,5.82
2023-02-04T03:32:36.323Z,4.90
2023-02-04T03:35:03.173Z,5.07
2023-02-04T03:37:30.030Z,4.43
2023-02-04T03:39:56.899Z,4.75
2023-02-04T03:42:24.912Z,5.28
2023-02-04T03:44:51.766Z,5.10
2023-02-04T03:47:18.607Z,4.05
2023-02-04T03:49:45.404Z,4.47
2023-02-04T03:52:12.251Z,4.50
2023-02-04T03:54:39.169Z,4.28
2023-02-04T03:57:06.091Z,3.50
2023-02-04T03:59:33.007Z,4.72
2023-02-04T04:01:59.889Z,4.78
2023-02-04T04:04:26.762Z,3.72
2023-02-04T04:06:53.624Z,2.38
2023-02-04T04:09:20.529Z,4.90
2023-02-04T04:11:47.421Z,2.03
2023-02-04T04:14:14.260Z,2.92
2023-02-04T04:16:41.170Z,8.90
2023-02-04T04:19:08.082Z,8.27
2023-02-04T04:21:34.975Z,9.32
2023-02-04T04:24:01.878Z,8.88
2023-02-04T04:26:28.757Z,8.57
2023-02-04T04:28:55.613Z,9.60
2023-02-04T04:31:22.693Z,8.45
2023-02-04T04:33:49.591Z,8.35
2023-02-04T04:36:16.549Z,8.68
2023-02-04T04:38:43.398Z,8.95
2023-02-04T04:41:10.302Z,9.30
2023-02-04T04:43:37.152Z,8.82
2023-02-04T04:46:04.085Z,8.68
2023-02-04T04:48:30.947Z,8.77
2023-02-04T04:50:58.425Z,9.40
2023-02-04T04:53:25.345Z,10.73
2023-02-04T04:55:52.212Z,9.35
2023-02-04T04:58:19.252Z,9.18
2023-02-04T05:00:46.244Z,9.05
2023-02-04T05:03:13.107Z,8.68
2023-02-04T05:05:41.451Z,9.25
2023-02-04T05:08:13.151Z,9.05
2023-02-04T05:10:40.640Z,9.32
2023-02-04T05:13:08.159Z,9.90
2023-02-04T05:15:35.232Z,9.73
2023-02-04T05:18:02.218Z,9.05
2023-02-04T05:20:29.205Z,8.80
2023-02-04T05:22:56.388Z,9.93
2023-02-04T05:25:23.782Z,8.77
2023-02-04T05:27:50.659Z,8.85
2023-02-04T05:30:17.697Z,7.93
2023-02-04T05:32:44.525Z,9.77
2023-02-04T05:35:12.131Z,8.73
2023-02-04T05:37:39.048Z,8.07
2023-02-04T05:40:06.457Z,9.18
2023-02-04T05:42:33.617Z,9.07
2023-02-04T05:45:00.571Z,10.25
2023-02-04T05:47:27.524Z,10.52
2023-02-04T05:49:54.383Z,10.65
2023-02-04T05:52:21.287Z,9.40
2023-02-04T05:54:48.169Z,10.30
2023-02-04T05:57:14.964Z,11.52
2023-02-04T05:59:41.738Z,10.52
2023-02-04T06:02:08.588Z,11.98
2023-02-04T06:04:35.442Z,13.02
2023-02-04T06:07:03.432Z,13.73
2023-02-04T06:09:30.275Z,12.02
2023-02-04T06:11:57.720Z,12.50
2023-02-04T06:14:24.642Z,12.02
2023-02-04T06:16:51.555Z,11.07
2023-02-04T06:19:18.529Z,12.10
2023-02-04T06:21:45.342Z,12.55
2023-02-04T06:24:12.206Z,12.90
2023-02-04T06:26:39.048Z,12.38
2023-02-04T06:29:05.927Z,12.05
2023-02-04T06:31:32.974Z,13.40
2023-02-04T06:34:00.289Z,12.95
2023-02-04T06:36:27.202Z,12.10
2023-02-04T06:38:54.315Z,10.65
2023-02-04T06:41:21.201Z,12.40
2023-02-04T06:43:48.153Z,12.55
2023-02-04T06:46:16.167Z,12.38
2023-02-04T06:48:43.092Z,11.60
2023-02-04T06:51:10.001Z,12.00
2023-02-04T06:53:36.854Z,12.73
2023-02-04T06:56:03.678Z,13.65
2023-02-04T06:58:30.501Z,11.70
2023-02-04T07:00:57.372Z,4.30
2023-02-04T07:03:24.215Z,4.97
2023-02-04T07:05:53.050Z,4.63
2023-02-04T07:08:21.940Z,4.63
2023-02-04T07:10:48.840Z,3.65
2023-02-04T07:13:15.660Z,4.65
2023-02-04T07:15:42.611Z,4.63
2023-02-04T07:18:09.443Z,5.22
2023-02-04T07:20:36.311Z,4.38
2023-02-04T07:23:03.236Z,4.63
2023-02-04T07:25:30.054Z,5.13
2023-02-04T07:27:57.866Z,4.80
2023-02-04T07:30:24.642Z,4.35
2023-02-04T07:32:51.512Z,5.68
2023-02-04T07:35:18.345Z,6.13
2023-02-04T07:37:45.357Z,6.32
2023-02-04T07:40:12.993Z,3.92
2023-02-04T07:42:39.834Z,5.68
2023-02-04T07:45:11.861Z,4.40
2023-02-04T07:47:38.702Z,4.15
2023-02-04T07:50:06.032Z,4.07
2023-02-04T07:52:32.898Z,3.75
2023-02-04T07:54:59.693Z,4.68
2023-02-04T07:57:26.649Z,4.15
2023-02-04T07:59:53.480Z,4.82
2023-02-04T08:02:20.389Z,5.60
2023-02-04T08:04:47.298Z,5.07
2023-02-04T08:07:14.368Z,4.95
2023-02-04T08:09:41.349Z,5.70
2023-02-04T08:12:08.309Z,3.42
2023-02-04T08:14:35.400Z,4.65
2023-02-04T08:17:02.260Z,4.18
2023-02-04T08:19:29.146Z,3.67
2023-02-04T08:21:56.053Z,4.30
2023-02-04T08:24:22.955Z,3.58
2023-02-04T08:26:51.089Z,3.40
2023-02-04T08:29:18.659Z,4.30
2023-02-04T08:31:46.894Z,3.80
2023-02-04T08:34:13.970Z,4.22
2023-02-04T08:36:40.878Z,3.80
2023-02-04T08:39:07.721Z,5.90
2023-02-04T08:41:34.658Z,3.72
2023-02-04T08:44:01.809Z,4.53
2023-02-04T08:46:28.691Z,4.13
2023-02-04T08:48:56.195Z,4.28
2023-02-04T08:51:23.092Z,5.00
2023-02-04T08:53:49.988Z,3.00
2023-02-04T08:56:19.245Z,4.57
2023-02-04T08:58:46.685Z,4.30
2023-02-04T09:01:14.202Z,4.45
2023-02-04T09:03:41.225Z,4.03
2023-02-04T09:06:08.925Z,3.70
2023-02-04T09:08:35.904Z,5.68
2023-02-04T09:11:03.170Z,7.03
2023-02-04T09:13:30.793Z,3.75
2023-02-04T09:15:57.619Z,4.45
2023-02-04T09:18:25.974Z,4.63
2023-02-04T09:20:53.224Z,5.10
2023-02-04T09:23:20.547Z,3.70
2023-02-04T09:25:47.565Z,3.33
2023-02-04T09:28:17.142Z,4.60
2023-02-04T09:30:46.626Z,3.45
2023-02-04T09:33:15.529Z,3.40
2023-02-04T09:35:42.400Z,3.72
2023-02-04T09:38:09.296Z,3.60
2023-02-04T09:40:42.023Z,5.63
2023-02-04T09:43:15.284Z,3.17
2023-02-04T09:45:42.331Z,3.28
2023-02-04T09:48:13.782Z,3.85
2023-02-04T09:50:40.819Z,4.10
2023-02-04T09:53:13.365Z,3.65
2023-02-04T09:55:43.250Z,2.53
2023-02-04T09:58:20.235Z,2.78
2023-02-04T10:00:52.764Z,3.05
2023-02-04T10:03:23.509Z,2.40
2023-02-04T10:05:51.628Z,2.45
2023-02-04T10:08:28.772Z,3.88
2023-02-04T10:10:58.007Z,4.57
2023-02-04T10:13:33.080Z,6.40
2023-02-04T10:16:01.347Z,5.43
2023-02-04T10:18:34.133Z,6.07
2023-02-04T10:21:17.022Z,5.20
2023-02-04T10:23:47.198Z,4.50
2023-02-04T10:26:15.900Z,4.05
2023-02-04T10:28:43.361Z,3.13
2023-02-04T10:31:39.471Z,4.13
2023-02-04T10:34:10.340Z,2.00
2023-02-04T10:36:37.318Z,2.67
2023-02-04T10:39:11.535Z,2.90
2023-02-04T10:41:44.296Z,2.97
2023-02-04T10:44:13.601Z,1.73
2023-02-04T10:46:40.538Z,3.10
2023-02-04T10:49:22.490Z,2.47
2023-02-04T10:51:51.569Z,2.35
2023-02-04T10:54:30.257Z,2.53
2023-02-04T10:57:04.976Z,1.70
2023-02-04T10:59:32.164Z,4.03
2023-02-04T11:02:01.777Z,3.80
2023-02-04T11:04:28.982Z,2.00
2023-02-04T11:06:55.866Z,2.08
2023-02-04T11:09:22.895Z,1.52
2023-02-04T11:11:51.557Z,3.70
2023-02-04T11:14:24.363Z,4.28
2023-02-04T11:16:51.532Z,1.70
2023-02-04T11:19:40.113Z,2.85
2023-02-04T11:22:25.665Z,3.08
2023-02-04T11:24:52.636Z,3.90
2023-02-04T11:27:24.139Z,3.05
2023-02-04T11:29:51.198Z,2.65
2023-02-04T11:32:33.530Z,1.70
2023-02-04T11:35:28.874Z,2.05
2023-02-04T11:37:56.094Z,4.32
2023-02-04T11:40:33.256Z,4.20
2023-02-04T11:43:16.428Z,1.70
2023-02-04T11:45:43.530Z,2.30
2023-02-04T11:48:19.359Z,2.70
2023-02-04T11:51:00.289Z,2.10
2023-02-04T11:53:33.021Z,2.70
2023-02-04T11:56:00.594Z,2.65
2023-02-04T11:58:31.111Z,2.28
2023-02-04T12:00:58.627Z,1.55
2023-02-04T12:03:31.701Z,3.60
2023-02-04T12:05:59.757Z,2.13
2023-02-04T12:08:32.392Z,3.10
2023-02-04T12:11:01.915Z,2.85
2023-02-04T12:13:30.929Z,2.15
2023-02-04T12:16:01.084Z,4.10
2023-02-04T12:18:29.309Z,2.42
2023-02-04T12:20:57.495Z,2.78
2023-02-04T12:23:25.453Z,3.33
2023-02-04T12:25:52.901Z,1.83
2023-02-04T12:28:20.166Z,2.67
2023-02-04T12:30:47.146Z,2.55
2023-02-04T12:33:15.113Z,2.22
2023-02-04T12:35:42.610Z,3.15
2023-02-04T12:38:10.434Z,2.05
2023-02-04T12:40:37.997Z,3.15
2023-02-04T12:43:05.029Z,3.33
2023-02-04T12:45:32.698Z,3.55
2023-02-04T12:48:00.205Z,1.55
2023-02-04T12:50:27.223Z,2.45
2023-02-04T12:52:56.143Z,2.25
2023-02-04T12:55:24.816Z,3.50
2023-02-04T12:57:52.421Z,2.88
2023-02-04T13:00:21.030Z,3.40
2023-02-04T13:02:48.498Z,2.65
2023-02-04T13:05:16.855Z,2.67
2023-02-04T13:07:43.678Z,4.00
2023-02-04T13:10:11.379Z,3.35
2023-02-04T13:12:38.254Z,2.47
2023-02-04T13:15:06.020Z,3.47
2023-02-04T13:17:32.996Z,2.22
2023-02-04T13:20:00.804Z,3.03
2023-02-04T13:22:27.989Z,3.17
2023-02-04T13:24:54.946Z,3.60
2023-02-04T13:27:21.924Z,1.67
2023-02-04T13:29:48.794Z,1.73
2023-02-04T13:32:16.194Z,2.75
2023-02-04T13:34:43.070Z,1.92
2023-02-04T13:37:09.983Z,2.65
2023-02-04T13:39:36.940Z,2.28
2023-02-04T13:42:04.622Z,1.80
2023-02-04T13:44:32.814Z,1.35
2023-02-04T13:47:00.263Z,2.22
2023-02-04T13:49:27.158Z,1.77
2023-02-04T13:51:54.032Z,2.00
2023-02-04T13:54:20.897Z,1.15
2023-02-04T13:56:47.842Z,2.40
2023-02-04T13:59:14.735Z,2.20
2023-02-04T14:01:41.671Z,2.47
2023-02-04T14:04:08.600Z,2.60
2023-02-04T14:06:38.311Z,1.17
2023-02-04T14:09:05.521Z,2.17
2023-02-04T14:11:32.328Z,2.60
2023-02-04T14:13:59.175Z,3.30
2023-02-04T14:16:26.092Z,1.85
2023-02-04T14:18:53.099Z,2.95
2023-02-04T14:21:20.000Z,1.70
2023-02-04T14:23:46.788Z,1.75
2023-02-04T14:26:13.692Z,2.15
2023-02-04T14:28:40.523Z,2.90
2023-02-04T14:31:07.486Z,4.88
2023-02-04T14:33:34.378Z,4.40
2023-02-04T14:36:01.314Z,2.45
2023-02-04T14:38:31.239Z,2.38
2023-02-04T14:40:58.853Z,3.13
2023-02-04T14:43:26.251Z,3.78
2023-02-04T14:45:53.438Z,2.38
2023-02-04T14:48:20.452Z,3.03
2023-02-04T14:50:47.370Z,2.13
2023-02-04T14:53:14.345Z,2.65
2023-02-04T14:55:41.305Z,2.40
2023-02-04T14:58:08.210Z,2.78
2023-02-04T15:00:35.272Z,2.17
2023-02-04T15:03:02.271Z,4.97
2023-02-04T15:05:29.206Z,2.65
2023-02-04T15:07:56.101Z,3.20
2023-02-04T15:10:24.752Z,3.60
2023-02-04T15:12:52.089Z,3.80
2023-02-04T15:29:53.079Z,2.65
2023-02-04T15:32:38.529Z,1.52
2023-02-04T15:35:05.845Z,3.78
2023-02-04T15:40:35.821Z,3.15
2023-02-04T15:43:21.497Z,2.20
2023-02-04T15:45:48.360Z,2.58
2023-02-04T15:48:16.725Z,2.92
2023-02-04T15:50:44.092Z,4.93
2023-02-04T15:53:11.085Z,3.45
2023-02-04T15:55:37.899Z,4.47
2023-02-04T15:58:04.778Z,3.67
2023-02-04T16:00:31.828Z,4.68
2023-02-04T16:02:58.941Z,4.18
2023-02-04T16:05:25.817Z,2.60
2023-02-04T16:07:52.627Z,1.52
2023-02-04T16:10:19.913Z,2.10
2023-02-04T16:12:47.612Z,1.63
2023-02-04T16:15:15.253Z,1.27
2023-02-04T16:17:42.134Z,1.98
2023-02-04T16:20:10.067Z,1.20
2023-02-04T16:22:37.197Z,0.93
2023-02-04T16:25:04.964Z,1.38
2023-02-04T16:27:31.984Z,1.20
2023-02-04T16:29:58.873Z,1.20
2023-02-04T16:32:26.134Z,0.60
2023-02-04T16:34:53.862Z,0.43
2023-02-04T16:37:20.744Z,1.45
2023-02-04T16:39:48.298Z,1.55
2023-02-04T16:42:15.452Z,1.05
2023-02-04T16:44:42.289Z,1.65
2023-02-04T16:47:09.386Z,2.15
2023-02-04T16:49:36.949Z,1.05
2023-02-04T16:52:05.258Z,2.25
2023-02-04T16:54:33.036Z,0.65
2023-02-04T16:57:00.800Z,0.85
2023-02-04T16:59:28.789Z,1.95
2023-02-04T17:01:57.774Z,1.73
2023-02-04T17:04:25.415Z,1.73
2023-02-04T17:06:52.695Z,1.38
2023-02-04T17:09:20.154Z,1.58
2023-02-04T17:11:47.256Z,0.80
2023-02-04T17:14:17.554Z,1.02
2023-02-04T17:16:45.649Z,1.83
2023-02-04T17:19:14.197Z,1.63
2023-02-04T17:21:41.165Z,1.63
2023-02-04T17:24:09.014Z,1.52
2023-02-04T17:26:38.157Z,1.48
2023-02-04T17:29:10.694Z,1.27
2023-02-04T17:31:38.503Z,0.60
2023-02-04T17:34:06.386Z,3.00
2023-02-04T17:36:33.445Z,1.88
2023-02-04T17:39:00.555Z,1.15
2023-02-04T17:41:28.027Z,1.63
2023-02-04T17:43:55.168Z,1.50
2023-02-04T17:46:22.320Z,1.25
2023-02-04T17:48:49.246Z,1.42
2023-02-04T17:51:16.198Z,1.42
2023-02-04T17:53:43.223Z,0.85
2023-02-04T17:56:12.386Z,0.95
2023-02-04T17:58:39.873Z,2.28
2023-02-04T18:01:15.618Z,0.40
2023-02-04T18:03:46.086Z,1.25
2023-02-04T18:06:22.407Z,1.67
2023-02-04T18:08:50.604Z,1.63
2023-02-04T18:11:20.394Z,1.05
2023-02-04T18:13:48.672Z,1.40
2023-02-04T18:16:34.720Z,0.95
2023-02-04T18:19:20.152Z,0.57
2023-02-04T18:21:48.174Z,0.65
2023-02-04T18:24:22.924Z,0.65
2023-02-04T18:27:01.284Z,2.38
2023-02-04T18:29:35.224Z,0.38
2023-02-04T18:32:19.237Z,0.95
2023-02-04T18:34:51.707Z,0.63
2023-02-04T18:37:29.555Z,0.50
2023-02-04T18:40:20.134Z,0.80
2023-02-04T18:42:47.669Z,0.95
2023-02-04T18:45:24.348Z,0.80
2023-02-04T18:47:56.644Z,0.40
2023-02-04T18:50:32.620Z,1.15
2023-02-04T18:53:15.138Z,0.57
2023-02-04T18:55:50.359Z,1.10
2023-02-04T18:58:17.304Z,4.68
2023-02-04T19:00:49.827Z,5.63
2023-02-04T19:03:25.439Z,4.38
2023-02-04T19:05:54.005Z,4.97
2023-02-04T19:08:51.716Z,4.53
2023-02-04T19:11:34.673Z,5.05
2023-02-04T19:14:02.783Z,5.80
2023-02-04T19:16:38.815Z,6.63
2023-02-04T19:19:26.750Z,6.13
2023-02-04T19:21:53.722Z,6.35
2023-02-04T19:24:29.841Z,5.93
2023-02-04T19:27:01.743Z,8.00
2023-02-04T19:29:42.804Z,6.93
2023-02-04T19:32:13.044Z,7.47
2023-02-04T19:34:40.030Z,2.35
2023-02-04T19:37:22.970Z,2.70
2023-02-04T19:39:54.527Z,1.85
2023-02-04T19:42:29.161Z,3.47
2023-02-04T19:44:59.401Z,2.45
2023-02-04T19:47:37.488Z,4.55
2023-02-04T19:50:13.545Z,3.15
2023-02-04T19:52:54.813Z,2.42
2023-02-04T19:55:37.315Z,2.85
2023-02-04T19:58:19.463Z,2.05
2023-02-04T20:00:56.383Z,3.10
2023-02-04T20:03:34.905Z,2.55
2023-02-04T20:06:30.125Z,2.08
2023-02-04T20:09:16.916Z,2.58
2023-02-04T20:11:50.756Z,3.17
2023-02-04T20:14:37.428Z,3.83
2023-02-04T20:17:15.111Z,2.92
2023-02-04T20:19:42.672Z,3.70
2023-02-04T20:22:22.159Z,2.75
2023-02-04T20:24:55.036Z,2.85
2023-02-04T20:27:28.751Z,2.20
2023-02-04T20:30:23.586Z,2.67
2023-02-04T20:32:55.157Z,3.25
2023-02-04T20:35:22.418Z,4.35
2023-02-04T20:37:58.824Z,2.53
2023-02-04T20:40:33.453Z,3.28
2023-02-04T20:43:02.138Z,3.47
2023-02-04T20:45:32.965Z,2.15
2023-02-04T20:48:13.325Z,3.67
2023-02-04T20:50:43.903Z,3.55
2023-02-04T20:53:42.713Z,3.47
2023-02-04T20:56:24.385Z,3.92
2023-02-04T20:58:57.731Z,2.92
2023-02-04T21:01:36.078Z,3.78
2023-02-04T21:04:27.016Z,2.47
2023-02-04T21:06:57.548Z,3.85
2023-02-04T21:09:27.389Z,2.85
2023-02-04T21:11:55.533Z,5.13
2023-02-04T21:14:23.390Z,2.22
2023-02-04T21:16:50.381Z,2.75
2023-02-04T21:19:17.469Z,3.28
2023-02-04T21:21:44.635Z,1.85
2023-02-04T21:24:11.813Z,2.70
2023-02-04T21:26:38.807Z,2.45
2023-02-04T21:29:06.309Z,2.20
2023-02-04T21:31:33.749Z,4.07
2023-02-04T21:34:00.683Z,3.05
2023-02-04T21:36:27.981Z,2.78
2023-02-04T21:38:56.124Z,1.80
2023-02-04T21:41:24.015Z,3.15
2023-02-04T21:43:51.705Z,2.72
2023-02-04T21:46:19.161Z,2.78
2023-02-04T21:48:46.582Z,1.70
2023-02-04T21:51:14.757Z,2.35
2023-02-04T21:53:42.289Z,1.60
2023-02-04T21:56:09.558Z,1.70
2023-02-04T21:58:36.923Z,1.75
2023-02-04T22:01:03.949Z,2.30
2023-02-04T22:03:30.877Z,2.30
2023-02-04T22:05:57.768Z,2.55
2023-02-04T22:08:24.677Z,1.40
2023-02-04T22:10:51.639Z,2.00
2023-02-04T22:13:37.245Z,1.95
2023-02-04T22:16:04.303Z,1.77
2023-02-04T22:18:31.338Z,1.88
2023-02-04T22:20:59.608Z,2.10
2023-02-04T22:23:26.453Z,2.15
2023-02-04T22:25:53.333Z,2.45
2023-02-04T22:28:20.269Z,1.50
2023-02-04T22:30:47.255Z,2.22
2023-02-04T22:33:14.247Z,2.00
2023-02-04T22:35:41.164Z,1.60
2023-02-04T22:38:08.130Z,2.30
2023-02-04T22:40:35.047Z,2.10
2023-02-04T22:43:02.416Z,1.90
2023-02-04T22:45:29.261Z,2.13
2023-02-04T22:47:56.130Z,2.42
2023-02-04T22:50:23.024Z,2.30
2023-02-04T22:52:49.861Z,2.78
2023-02-04T22:55:16.745Z,2.72
2023-02-04T22:57:43.519Z,2.85
2023-02-04T23:00:11.202Z,2.15
2023-02-04T23:02:38.000Z,4.05
2023-02-04T23:05:05.430Z,2.10
2023-02-04T23:07:32.358Z,1.70
2023-02-04T23:09:59.609Z,2.45
2023-02-04T23:12:26.439Z,1.80
2023-02-04T23:14:53.360Z,2.13
2023-02-04T23:17:20.118Z,2.72
2023-02-04T23:19:46.951Z,1.70
2023-02-04T23:22:14.142Z,1.92
2023-02-04T23:24:41.816Z,3.13
2023-02-04T23:27:11.416Z,2.88
2023-02-04T23:29:39.728Z,2.88
2023-02-04T23:32:07.490Z,2.22
2023-02-04T23:34:34.988Z,2.33
2023-02-04T23:37:01.977Z,2.40
2023-02-04T23:39:29.070Z,2.78
2023-02-04T23:41:56.042Z,2.28
2023-02-04T23:44:23.040Z,2.72
2023-02-04T23:46:50.225Z,2.42
2023-02-04T23:49:17.173Z,3.28
2023-02-04T23:51:44.280Z,4.97
2023-02-04T23:54:11.196Z,4.97
2023-02-04T23:56:38.366Z,1.70
2023-02-04T23:59:06.008Z,1.67
